createdAt,value
2019-04-28T00:00:38.607Z,0
2019-04-28T00:01:38.265Z,0
2019-04-28T00:02:53.170Z,0
2019-04-28T00:03:39.034Z,0
2019-04-28T00:04:53.868Z,0
2019-04-28T00:05:41.490Z,0
2019-04-28T00:06:38.232Z,0
2019-04-28T00:07:55.125Z,0
2019-04-28T00:08:39.057Z,0
2019-04-28T00:09:53.213Z,0
2019-04-28T00:12:06.713Z,0
2019-04-28T00:12:38.253Z,0
2019-04-28T00:13:39.250Z,0
2019-04-28T00:14:38.927Z,0
2019-04-28T00:15:52.706Z,0
2019-04-28T00:16:38.390Z,0
2019-04-28T00:17:38.093Z,0
2019-04-28T00:18:38.921Z,0
2019-04-28T00:19:53.938Z,0
2019-04-28T00:20:52.917Z,0
2019-04-28T00:21:39.130Z,0
2019-04-28T00:22:37.936Z,0
2019-04-28T00:23:39.007Z,0
2019-04-28T00:24:38.436Z,0
2019-04-28T00:25:38.375Z,0
2019-04-28T00:26:38.250Z,0
2019-04-28T00:27:54.020Z,0
2019-04-28T00:28:38.613Z,0
2019-04-28T00:29:51.819Z,0
2019-04-28T00:30:38.860Z,0
2019-04-28T00:31:38.439Z,0
2019-04-28T00:32:39.729Z,0
2019-04-28T00:33:38.584Z,0
2019-04-28T00:34:38.356Z,0
2019-04-28T00:36:38.514Z,0
2019-04-28T00:37:39.170Z,0
2019-04-28T00:38:38.820Z,0
2019-04-28T00:39:38.243Z,0
2019-04-28T00:40:38.818Z,0
2019-04-28T00:41:38.159Z,0
2019-04-28T00:42:38.646Z,0
2019-04-28T00:43:54.411Z,0
2019-04-28T00:44:53.959Z,0
2019-04-28T00:45:38.575Z,0
2019-04-28T00:46:38.289Z,0
2019-04-28T00:47:53.073Z,0
2019-04-28T00:48:38.135Z,0
2019-04-28T00:49:38.759Z,0
2019-04-28T00:50:38.526Z,0
2019-04-28T00:52:39.190Z,0
2019-04-28T00:53:38.274Z,0
2019-04-28T00:54:38.879Z,0
2019-04-28T00:55:39.235Z,0
2019-04-28T00:56:38.874Z,0
2019-04-28T00:58:55.592Z,0
2019-04-28T01:00:04.676Z,0
2019-04-28T01:00:53.810Z,0
2019-04-28T01:01:38.406Z,0
2019-04-28T01:02:38.488Z,0
2019-04-28T01:03:39.340Z,0
2019-04-28T01:05:38.481Z,0
2019-04-28T01:06:54.513Z,0
2019-04-28T01:07:41.311Z,0
2019-04-28T01:09:38.556Z,0
2019-04-28T01:10:38.582Z,0
2019-04-28T01:11:38.846Z,0
2019-04-28T01:12:38.623Z,0
2019-04-28T01:13:39.160Z,0
2019-04-28T01:14:59.274Z,0
2019-04-28T01:15:39.623Z,0
2019-04-28T01:16:40.033Z,0
2019-04-28T01:17:39.743Z,0
2019-04-28T01:18:40.455Z,0
2019-04-28T01:19:39.810Z,0
2019-04-28T01:20:39.640Z,0
2019-04-28T01:21:41.500Z,0
2019-04-28T01:22:40.119Z,0
2019-04-28T01:23:53.263Z,0
2019-04-28T01:24:53.527Z,0
2019-04-28T01:25:40.065Z,0
2019-04-28T01:26:53.571Z,0
2019-04-28T01:27:40.259Z,0
2019-04-28T01:28:39.756Z,0
2019-04-28T01:29:40.252Z,0
2019-04-28T01:30:40.095Z,0
2019-04-28T01:31:39.603Z,0
2019-04-28T01:32:39.927Z,0
2019-04-28T01:33:40.628Z,0
2019-04-28T01:34:39.976Z,0
2019-04-28T01:35:39.635Z,0
2019-04-28T01:36:39.938Z,0
2019-04-28T01:37:40.704Z,0
2019-04-28T01:38:53.813Z,0
2019-04-28T01:39:53.829Z,0
2019-04-28T01:40:39.188Z,0
2019-04-28T01:41:39.691Z,0
2019-04-28T01:42:53.886Z,0
2019-04-28T01:43:39.248Z,0
2019-04-28T01:44:39.618Z,0
2019-04-28T01:45:39.731Z,0
2019-04-28T01:46:54.487Z,0
2019-04-28T01:47:40.441Z,0
2019-04-28T01:48:39.768Z,0
2019-04-28T01:49:40.542Z,0
2019-04-28T01:50:39.975Z,0
2019-04-28T01:51:41.367Z,0
2019-04-28T01:52:39.902Z,0
2019-04-28T01:53:39.619Z,0
2019-04-28T01:54:54.134Z,0
2019-04-28T01:55:41.094Z,0
2019-04-28T01:56:40.340Z,0
2019-04-28T01:57:40.078Z,0
2019-04-28T01:58:40.342Z,0
2019-04-28T01:59:40.242Z,0
2019-04-28T02:00:40.510Z,0
2019-04-28T02:01:40.017Z,0
2019-04-28T02:02:55.375Z,0
2019-04-28T02:03:40.411Z,0
2019-04-28T02:04:40.370Z,0
2019-04-28T02:05:40.485Z,0
2019-04-28T02:06:39.938Z,0
2019-04-28T02:07:40.698Z,0
2019-04-28T02:08:40.011Z,0
2019-04-28T02:10:40.208Z,0
2019-04-28T02:11:43.412Z,0
2019-04-28T02:13:54.513Z,0
2019-04-28T02:14:40.365Z,0
2019-04-28T02:15:40.116Z,0
2019-04-28T02:16:40.480Z,0
2019-04-28T02:17:40.196Z,0
2019-04-28T02:18:54.609Z,0
2019-04-28T02:19:40.913Z,0
2019-04-28T02:20:39.989Z,0
2019-04-28T02:21:42.028Z,0
2019-04-28T02:22:40.172Z,0
2019-04-28T02:23:42.064Z,0
2019-04-28T02:24:40.539Z,0
2019-04-28T02:25:42.244Z,0
2019-04-28T02:26:40.308Z,0
2019-04-28T02:27:40.327Z,0
2019-04-28T02:29:43.931Z,0
2019-04-28T02:31:01.882Z,0
2019-04-28T02:31:41.878Z,0
2019-04-28T02:32:43.051Z,0
2019-04-28T02:33:40.967Z,0
2019-04-28T02:35:10.726Z,0
2019-04-28T02:35:44.348Z,0
2019-04-28T02:36:43.084Z,0
2019-04-28T02:38:43.922Z,0
2019-04-28T02:39:43.126Z,0
2019-04-28T02:40:55.055Z,0
2019-04-28T02:41:43.611Z,0
2019-04-28T02:42:43.300Z,0
2019-04-28T02:43:43.332Z,0
2019-04-28T02:44:45.214Z,0
2019-04-28T02:45:43.549Z,0
2019-04-28T02:46:43.214Z,0
2019-04-28T02:47:44.301Z,0
2019-04-28T02:48:42.808Z,0
2019-04-28T02:50:11.325Z,0
2019-04-28T02:51:43.066Z,0
2019-04-28T02:52:41.428Z,0
2019-04-28T02:53:43.281Z,0
2019-04-28T02:54:42.998Z,0
2019-04-28T02:55:55.362Z,0
2019-04-28T02:56:55.375Z,0
2019-04-28T02:57:55.400Z,0
2019-04-28T02:59:55.437Z,0
2019-04-28T03:01:00.767Z,0
2019-04-28T03:01:43.363Z,0
2019-04-28T03:02:43.833Z,0
2019-04-28T03:04:43.315Z,0
2019-04-28T03:05:55.690Z,0
2019-04-28T03:06:55.581Z,0
2019-04-28T03:07:43.355Z,0
2019-04-28T03:08:43.021Z,0
2019-04-28T03:09:42.882Z,0
2019-04-28T03:10:43.518Z,0
2019-04-28T03:11:45.294Z,0
2019-04-28T03:12:43.743Z,0
2019-04-28T03:14:46.025Z,0
2019-04-28T03:15:43.755Z,0
2019-04-28T03:16:55.774Z,0
2019-04-28T03:17:43.263Z,0
2019-04-28T03:19:44.138Z,0
2019-04-28T03:20:44.075Z,0
2019-04-28T03:21:55.788Z,0
2019-04-28T03:22:43.455Z,4
2019-04-28T03:23:43.023Z,4
2019-04-28T03:24:43.635Z,4
2019-04-28T03:25:43.283Z,4
2019-04-28T03:27:56.001Z,4
2019-04-28T03:29:42.961Z,4
2019-04-28T03:30:46.046Z,8
2019-04-28T03:32:54.818Z,8
2019-04-28T03:33:41.635Z,8
2019-04-28T03:34:25.468Z,12
2019-04-28T03:35:25.227Z,8
2019-04-28T03:36:32.294Z,8
2019-04-28T03:37:21.535Z,12
2019-04-28T03:38:21.337Z,12
2019-04-28T03:39:20.433Z,16
2019-04-28T03:40:21.140Z,20
2019-04-28T03:41:21.108Z,20
2019-04-28T03:42:21.509Z,20
2019-04-28T03:43:23.706Z,28
2019-04-28T03:44:20.768Z,24
2019-04-28T03:45:21.076Z,28
2019-04-28T03:46:34.108Z,28
2019-04-28T03:47:21.006Z,32
2019-04-28T03:48:34.124Z,28
2019-04-28T03:49:21.051Z,32
2019-04-28T03:50:20.175Z,32
2019-04-28T03:52:21.041Z,36
2019-04-28T03:53:20.685Z,40
2019-04-28T03:55:21.248Z,40
2019-04-28T03:56:20.870Z,40
2019-04-28T03:57:21.458Z,40
2019-04-28T03:58:21.825Z,40
2019-04-28T04:00:21.935Z,44
2019-04-28T04:01:20.660Z,40
2019-04-28T04:02:36.064Z,40
2019-04-28T04:03:20.916Z,40
2019-04-28T04:04:34.202Z,40
2019-04-28T04:05:20.800Z,44
2019-04-28T04:06:22.223Z,48
2019-04-28T04:07:21.462Z,44
2019-04-28T04:08:20.818Z,48
2019-04-28T04:09:21.092Z,44
2019-04-28T04:10:20.626Z,48
2019-04-28T04:11:22.642Z,48
2019-04-28T04:12:21.149Z,48
2019-04-28T04:13:22.477Z,52
2019-04-28T04:15:21.303Z,56
2019-04-28T04:16:20.765Z,52
2019-04-28T04:17:21.134Z,56
2019-04-28T04:18:35.750Z,56
2019-04-28T04:19:22.733Z,60
2019-04-28T04:20:20.659Z,64
2019-04-28T04:21:21.336Z,64
2019-04-28T04:22:34.784Z,68
2019-04-28T04:23:22.556Z,72
2019-04-28T04:24:22.920Z,72
2019-04-28T04:25:22.699Z,72
2019-04-28T04:26:36.125Z,72
2019-04-28T04:27:23.313Z,76
2019-04-28T04:29:21.630Z,88
2019-04-28T04:30:20.825Z,92
2019-04-28T04:31:22.496Z,104
2019-04-28T04:32:36.061Z,108
2019-04-28T04:33:23.059Z,112
2019-04-28T04:34:35.126Z,132
2019-04-28T04:35:21.423Z,136
2019-04-28T04:36:21.202Z,136
2019-04-28T04:37:22.894Z,144
2019-04-28T04:38:21.692Z,144
2019-04-28T04:39:22.973Z,148
2019-04-28T04:40:23.355Z,152
2019-04-28T04:41:22.348Z,148
2019-04-28T04:42:35.177Z,160
2019-04-28T04:43:25.501Z,176
2019-04-28T04:44:23.386Z,216
2019-04-28T04:45:22.657Z,232
2019-04-28T04:46:24.442Z,220
2019-04-28T04:47:23.448Z,188
2019-04-28T04:48:21.459Z,160
2019-04-28T04:49:23.827Z,132
2019-04-28T04:50:36.291Z,120
2019-04-28T04:51:23.592Z,112
2019-04-28T04:52:22.752Z,104
2019-04-28T04:53:35.389Z,100
2019-04-28T04:54:22.669Z,104
2019-04-28T04:55:35.424Z,112
2019-04-28T04:56:23.688Z,136
2019-04-28T04:57:23.111Z,152
2019-04-28T04:58:35.487Z,164
2019-04-28T04:59:22.657Z,184
2019-04-28T05:00:35.524Z,236
2019-04-28T05:01:35.555Z,264
2019-04-28T05:02:39.792Z,280
2019-04-28T05:03:23.744Z,320
2019-04-28T05:05:35.624Z,484
2019-04-28T05:06:22.317Z,532
2019-04-28T05:07:22.098Z,584
2019-04-28T05:08:22.770Z,612
2019-04-28T05:09:22.095Z,676
2019-04-28T05:10:22.817Z,720
2019-04-28T05:11:22.411Z,748
2019-04-28T05:12:22.005Z,768
2019-04-28T05:14:22.338Z,768
2019-04-28T05:15:22.794Z,732
2019-04-28T05:16:22.151Z,648
2019-04-28T05:17:22.760Z,528
2019-04-28T05:18:22.407Z,472
2019-04-28T05:19:22.359Z,456
2019-04-28T05:20:22.547Z,440
2019-04-28T05:22:22.615Z,472
2019-04-28T05:23:22.040Z,524
2019-04-28T05:24:24.902Z,544
2019-04-28T05:25:24.467Z,616
2019-04-28T05:26:23.690Z,704
2019-04-28T05:27:30.006Z,696
2019-04-28T05:28:22.192Z,708
2019-04-28T05:29:30.822Z,744
2019-04-28T05:30:22.866Z,704
2019-04-28T05:31:32.041Z,544
2019-04-28T05:32:22.995Z,460
2019-04-28T05:34:24.189Z,464
2019-04-28T05:35:29.406Z,540
2019-04-28T05:36:22.806Z,584
2019-04-28T05:38:22.524Z,656
2019-04-28T05:39:22.119Z,596
2019-04-28T05:40:23.009Z,576
2019-04-28T05:41:22.078Z,616
2019-04-28T05:42:22.338Z,716
2019-04-28T05:43:22.204Z,760
2019-04-28T05:45:22.822Z,724
2019-04-28T05:46:22.100Z,684
2019-04-28T05:47:36.424Z,540
2019-04-28T05:48:22.194Z,592
2019-04-28T05:49:36.466Z,588
2019-04-28T05:50:36.489Z,480
2019-04-28T05:51:36.500Z,424
2019-04-28T05:52:22.432Z,444
2019-04-28T05:53:36.555Z,404
2019-04-28T05:54:22.207Z,392
2019-04-28T05:55:22.844Z,436
2019-04-28T05:56:22.770Z,476
2019-04-28T05:57:36.622Z,532
2019-04-28T05:58:22.278Z,564
2019-04-28T05:59:23.739Z,564
2019-04-28T06:00:22.254Z,620
2019-04-28T06:01:22.828Z,668
2019-04-28T06:02:24.363Z,684
2019-04-28T06:03:22.419Z,784
2019-04-28T06:04:22.342Z,936
2019-04-28T06:05:22.477Z,1044
2019-04-28T06:06:22.868Z,1136
2019-04-28T06:07:22.669Z,1144
2019-04-28T06:08:22.643Z,1268
2019-04-28T06:09:51.519Z,1316
2019-04-28T06:10:24.888Z,1372
2019-04-28T06:11:22.639Z,1388
2019-04-28T06:12:22.624Z,1448
2019-04-28T06:13:22.663Z,1476
2019-04-28T06:14:36.960Z,1384
2019-04-28T06:15:22.872Z,1272
2019-04-28T06:17:23.107Z,1548
2019-04-28T06:18:23.015Z,1768
2019-04-28T06:19:22.638Z,1748
2019-04-28T06:21:37.079Z,2156
2019-04-28T06:22:25.020Z,2124
2019-04-28T06:23:22.456Z,2012
2019-04-28T06:24:22.477Z,1948
2019-04-28T06:25:37.162Z,2624
2019-04-28T06:26:22.516Z,2564
2019-04-28T06:27:36.956Z,2552
2019-04-28T06:28:37.221Z,2740
2019-04-28T06:29:22.571Z,2408
2019-04-28T06:30:37.257Z,2240
2019-04-28T06:31:22.615Z,2444
2019-04-28T06:32:37.294Z,3152
2019-04-28T06:33:22.660Z,3440
2019-04-28T06:34:22.669Z,3740
2019-04-28T06:35:22.689Z,4092
2019-04-28T06:36:22.862Z,4132
2019-04-28T06:37:37.411Z,4064
2019-04-28T06:38:37.406Z,3444
2019-04-28T06:40:37.448Z,3376
2019-04-28T06:41:37.478Z,3212
2019-04-28T06:42:22.825Z,3004
2019-04-28T06:43:22.857Z,2784
2019-04-28T06:44:22.868Z,2472
2019-04-28T06:45:22.884Z,2288
2019-04-28T06:46:22.908Z,2228
2019-04-28T06:47:24.086Z,2428
2019-04-28T06:48:37.640Z,2568
2019-04-28T06:49:37.624Z,2232
2019-04-28T06:50:22.987Z,2052
2019-04-28T06:52:23.018Z,1840
2019-04-28T06:53:23.069Z,1636
2019-04-28T06:54:23.062Z,1464
2019-04-28T06:55:23.134Z,1436
2019-04-28T06:56:23.115Z,1284
2019-04-28T06:57:23.127Z,1132
2019-04-28T06:58:23.155Z,1144
2019-04-28T06:59:23.154Z,1216
2019-04-28T07:00:23.183Z,1256
2019-04-28T07:01:23.209Z,1312
2019-04-28T07:02:23.216Z,1488
2019-04-28T07:03:30.246Z,1936
2019-04-28T07:04:23.287Z,2188
2019-04-28T07:05:23.274Z,2772
2019-04-28T07:06:23.295Z,2644
2019-04-28T07:07:23.323Z,2676
2019-04-28T07:08:23.465Z,2596
2019-04-28T07:09:23.631Z,2692
2019-04-28T07:10:23.377Z,3124
2019-04-28T07:11:23.440Z,3076
2019-04-28T07:12:38.082Z,2836
2019-04-28T07:13:25.487Z,2740
2019-04-28T07:14:23.482Z,2428
2019-04-28T07:15:23.475Z,2480
2019-04-28T07:16:23.489Z,2404
2019-04-28T07:17:23.516Z,2552
2019-04-28T07:18:23.536Z,2628
2019-04-28T07:19:23.552Z,2700
2019-04-28T07:20:23.565Z,2688
2019-04-28T07:22:23.606Z,3276
2019-04-28T07:23:23.637Z,2948
2019-04-28T07:25:23.666Z,2468
2019-04-28T07:26:23.697Z,2496
2019-04-28T07:27:23.758Z,2336
2019-04-28T07:28:38.147Z,2484
2019-04-28T07:31:23.788Z,2324
2019-04-28T07:32:23.814Z,2352
2019-04-28T07:33:35.447Z,2836
2019-04-28T07:34:23.843Z,3272
2019-04-28T07:35:23.866Z,3192
2019-04-28T07:36:23.885Z,3144
2019-04-28T07:37:23.900Z,3300
2019-04-28T07:38:38.597Z,3380
2019-04-28T07:39:38.607Z,3632
2019-04-28T07:41:23.982Z,4068
2019-04-28T07:42:38.709Z,4468
2019-04-28T07:43:24.032Z,4872
2019-04-28T07:44:38.709Z,4988
2019-04-28T07:45:24.064Z,4644
2019-04-28T07:46:24.084Z,4484
2019-04-28T07:47:24.108Z,5064
2019-04-28T07:48:24.131Z,4276
2019-04-28T07:49:24.144Z,3684
2019-04-28T07:50:24.163Z,3860
2019-04-28T07:51:24.180Z,4172
2019-04-28T07:52:24.209Z,3172
2019-04-28T07:53:24.266Z,2796
2019-04-28T07:54:24.253Z,2808
2019-04-28T07:55:24.259Z,2828
2019-04-28T07:56:24.279Z,2660
2019-04-28T07:57:26.564Z,2816
2019-04-28T07:58:24.343Z,2764
2019-04-28T07:59:24.337Z,3072
2019-04-28T08:00:39.021Z,3528
2019-04-28T08:01:24.383Z,3484
2019-04-28T08:02:24.576Z,3584
2019-04-28T08:03:24.421Z,3700
2019-04-28T08:04:24.444Z,3580
2019-04-28T08:05:24.466Z,3152
2019-04-28T08:06:26.901Z,2856
2019-04-28T08:07:24.504Z,2308
2019-04-28T08:08:24.519Z,2064
2019-04-28T08:09:24.542Z,2020
2019-04-28T08:10:24.564Z,2156
2019-04-28T08:11:24.583Z,2216
2019-04-28T08:12:39.261Z,2236
2019-04-28T08:13:24.626Z,2304
2019-04-28T08:14:26.887Z,2564
2019-04-28T08:15:39.335Z,2896
2019-04-28T08:16:24.682Z,3188
2019-04-28T08:17:24.706Z,3636
2019-04-28T08:18:24.738Z,3744
2019-04-28T08:19:24.847Z,3480
2019-04-28T08:20:24.769Z,4216
2019-04-28T08:21:24.795Z,4716
2019-04-28T08:22:39.463Z,3672
2019-04-28T08:23:24.814Z,3208
2019-04-28T08:24:39.382Z,3044
2019-04-28T08:25:39.521Z,3068
2019-04-28T08:26:24.902Z,2972
2019-04-28T08:28:24.916Z,3124
2019-04-28T08:29:24.934Z,3140
2019-04-28T08:30:24.961Z,3340
2019-04-28T08:31:24.989Z,3460
2019-04-28T08:32:24.999Z,3864
2019-04-28T08:33:25.023Z,4856
2019-04-28T08:34:25.040Z,5648
2019-04-28T08:35:25.057Z,6528
2019-04-28T08:36:25.174Z,7044
2019-04-28T08:37:25.094Z,7360
2019-04-28T08:38:25.129Z,6144
2019-04-28T08:39:29.309Z,5084
2019-04-28T08:40:25.164Z,4308
2019-04-28T08:41:25.179Z,3788
2019-04-28T08:42:25.201Z,3680
2019-04-28T08:43:25.212Z,3596
2019-04-28T08:45:25.309Z,3320
2019-04-28T08:46:25.274Z,3364
2019-04-28T08:47:39.967Z,3312
2019-04-28T08:48:25.318Z,3264
2019-04-28T08:49:25.366Z,3156
2019-04-28T08:50:25.353Z,3084
2019-04-28T08:51:25.381Z,3472
2019-04-28T08:52:25.392Z,3844
2019-04-28T08:53:25.420Z,3756
2019-04-28T08:54:40.100Z,3896
2019-04-28T08:55:25.458Z,3956
2019-04-28T08:56:40.138Z,4040
2019-04-28T08:57:40.158Z,3796
2019-04-28T08:58:25.522Z,3452
2019-04-28T08:59:25.637Z,3004
2019-04-28T09:00:25.554Z,2816
2019-04-28T09:01:25.574Z,2604
2019-04-28T09:02:25.596Z,2384
2019-04-28T09:03:40.283Z,2352
2019-04-28T09:04:25.642Z,2336
2019-04-28T09:05:25.657Z,2324
2019-04-28T09:06:25.676Z,2416
2019-04-28T09:07:25.695Z,2528
2019-04-28T09:08:25.716Z,2584
2019-04-28T09:09:25.750Z,2876
2019-04-28T09:10:25.768Z,2892
2019-04-28T09:11:25.779Z,3028
2019-04-28T09:12:25.796Z,3176
2019-04-28T09:13:40.478Z,3384
2019-04-28T09:14:25.847Z,3616
2019-04-28T09:15:40.525Z,4252
2019-04-28T09:16:25.876Z,4604
2019-04-28T09:17:25.906Z,4740
2019-04-28T09:18:25.913Z,5348
2019-04-28T09:19:42.400Z,5892
2019-04-28T09:20:25.956Z,5948
2019-04-28T09:21:25.986Z,6260
2019-04-28T09:22:26.020Z,6676
2019-04-28T09:23:26.013Z,7392
2019-04-28T09:24:26.037Z,8752
2019-04-28T09:25:26.055Z,9344
2019-04-28T09:26:26.177Z,9492
2019-04-28T09:27:26.097Z,9904
2019-04-28T09:29:26.139Z,10952
2019-04-28T09:30:26.165Z,11584
2019-04-28T09:31:26.191Z,12304
2019-04-28T09:32:26.197Z,13504
2019-04-28T09:33:26.294Z,14064
2019-04-28T09:34:35.095Z,12240
2019-04-28T09:35:40.700Z,10272
2019-04-28T09:36:26.284Z,10144
2019-04-28T09:37:26.304Z,10828
2019-04-28T09:38:26.327Z,9604
2019-04-28T09:39:28.340Z,7664
2019-04-28T09:40:26.385Z,6372
2019-04-28T09:41:26.442Z,6524
2019-04-28T09:42:41.074Z,6364
2019-04-28T09:43:26.438Z,6216
2019-04-28T09:44:26.455Z,6336
2019-04-28T09:45:41.138Z,7396
2019-04-28T09:47:26.517Z,8924
2019-04-28T09:48:26.540Z,9548
2019-04-28T09:49:26.554Z,10068
2019-04-28T09:50:41.240Z,9916
2019-04-28T09:51:26.602Z,9872
2019-04-28T09:52:26.623Z,10468
2019-04-28T09:53:26.639Z,10532
2019-04-28T09:54:26.664Z,10696
2019-04-28T09:55:26.693Z,10868
2019-04-28T09:56:26.722Z,10156
2019-04-28T09:57:26.737Z,9560
2019-04-28T09:58:41.411Z,9272
2019-04-28T09:59:26.771Z,8716
2019-04-28T10:00:26.793Z,7980
2019-04-28T10:01:26.822Z,7708
2019-04-28T10:02:41.504Z,7212
2019-04-28T10:03:41.519Z,6700
2019-04-28T10:04:26.880Z,6752
2019-04-28T10:05:26.899Z,6716
2019-04-28T10:06:26.919Z,6356
2019-04-28T10:07:26.940Z,6320
2019-04-28T10:08:26.960Z,6288
2019-04-28T10:09:26.983Z,6548
2019-04-28T10:10:41.672Z,8448
2019-04-28T10:12:34.379Z,6656
2019-04-28T10:13:27.071Z,6448
2019-04-28T10:14:27.086Z,6620
2019-04-28T10:15:41.774Z,6984
2019-04-28T10:16:27.132Z,6920
2019-04-28T10:17:27.152Z,6880
2019-04-28T10:18:27.176Z,6540
2019-04-28T10:19:27.197Z,6352
2019-04-28T10:20:27.240Z,6360
2019-04-28T10:21:27.245Z,6360
2019-04-28T10:22:41.934Z,5920
2019-04-28T10:24:27.305Z,5652
2019-04-28T10:25:28.439Z,5252
2019-04-28T10:26:27.349Z,4860
2019-04-28T10:27:27.383Z,4460
2019-04-28T10:28:42.056Z,3980
2019-04-28T10:29:27.435Z,3708
2019-04-28T10:30:27.487Z,3412
2019-04-28T10:31:42.117Z,3436
2019-04-28T10:32:27.477Z,3508
2019-04-28T10:33:42.154Z,3588
2019-04-28T10:34:27.522Z,3668
2019-04-28T10:35:27.538Z,3684
2019-04-28T10:36:27.561Z,3804
2019-04-28T10:38:42.269Z,4524
2019-04-28T10:39:27.620Z,5028
2019-04-28T10:40:27.643Z,5836
2019-04-28T10:41:27.666Z,6572
2019-04-28T10:42:27.700Z,7180
2019-04-28T10:43:27.704Z,7796
2019-04-28T10:44:27.726Z,8480
2019-04-28T10:45:27.750Z,9052
2019-04-28T10:46:42.449Z,9512
2019-04-28T10:47:27.793Z,9764
2019-04-28T10:48:27.811Z,9688
2019-04-28T10:49:27.838Z,9660
2019-04-28T10:50:42.521Z,9240
2019-04-28T10:51:42.537Z,9048
2019-04-28T10:52:27.896Z,9116
2019-04-28T10:54:42.601Z,9424
2019-04-28T10:55:27.957Z,9508
2019-04-28T10:56:27.979Z,9992
2019-04-28T10:57:28.000Z,11136
2019-04-28T10:58:28.026Z,12244
2019-04-28T10:59:28.089Z,13132
2019-04-28T11:00:28.165Z,13824
2019-04-28T11:01:28.091Z,14424
2019-04-28T11:02:28.116Z,14504
2019-04-28T11:03:28.192Z,13532
2019-04-28T11:04:28.155Z,13280
2019-04-28T11:05:27.685Z,13656
2019-04-28T11:06:28.197Z,13500
2019-04-28T11:07:28.219Z,12848
2019-04-28T11:08:28.245Z,11768
2019-04-28T11:09:37.751Z,11312
2019-04-28T11:10:42.961Z,11356
2019-04-28T11:11:28.314Z,11584
2019-04-28T11:12:28.341Z,11316
2019-04-28T11:13:28.351Z,11756
2019-04-28T11:14:28.374Z,12996
2019-04-28T11:15:43.064Z,14272
2019-04-28T11:16:28.417Z,14156
2019-04-28T11:17:28.447Z,14188
2019-04-28T11:18:28.462Z,13716
2019-04-28T11:19:28.490Z,13648
2019-04-28T11:20:30.098Z,13564
2019-04-28T11:21:28.529Z,14020
2019-04-28T11:22:28.556Z,14456
2019-04-28T11:23:30.464Z,14220
2019-04-28T11:24:28.604Z,14148
2019-04-28T11:25:43.037Z,14168
2019-04-28T11:26:28.651Z,13952
2019-04-28T11:27:28.709Z,14584
2019-04-28T11:28:28.697Z,14392
2019-04-28T11:29:28.713Z,14004
2019-04-28T11:30:43.404Z,13096
2019-04-28T11:31:28.765Z,12440
2019-04-28T11:32:28.784Z,13160
2019-04-28T11:33:28.809Z,13024
2019-04-28T11:34:28.829Z,13312
2019-04-28T11:35:29.385Z,12200
2019-04-28T11:36:28.887Z,10408
2019-04-28T11:38:43.582Z,7640
2019-04-28T11:39:28.950Z,7208
2019-04-28T11:40:28.977Z,7092
2019-04-28T11:41:28.989Z,6916
2019-04-28T11:42:29.015Z,6880
2019-04-28T11:43:29.036Z,6920
2019-04-28T11:44:29.055Z,7140
2019-04-28T11:45:43.747Z,7652
2019-04-28T11:46:29.105Z,7600
2019-04-28T11:47:29.127Z,7212
2019-04-28T11:48:29.149Z,6448
2019-04-28T11:49:29.166Z,5864
2019-04-28T11:51:29.212Z,5240
2019-04-28T11:52:29.237Z,5296
2019-04-28T11:53:29.254Z,5744
2019-04-28T11:54:31.400Z,6364
2019-04-28T11:55:29.315Z,7288
2019-04-28T11:56:40.686Z,7936
2019-04-28T11:57:44.018Z,8184
2019-04-28T11:58:29.131Z,8160
2019-04-28T11:59:44.063Z,8616
2019-04-28T12:00:43.839Z,9176
2019-04-28T12:01:29.443Z,9388
2019-04-28T12:02:29.462Z,9504
2019-04-28T12:03:29.497Z,9720
2019-04-28T12:04:29.504Z,9844
2019-04-28T12:05:57.876Z,10472
2019-04-28T12:06:29.550Z,10628
2019-04-28T12:07:29.585Z,10892
2019-04-28T12:08:29.592Z,11060
2019-04-28T12:09:44.279Z,11020
2019-04-28T12:10:29.661Z,11192
2019-04-28T12:11:44.324Z,10884
2019-04-28T12:12:29.688Z,9932
2019-04-28T12:13:44.382Z,8012
2019-04-28T12:14:29.728Z,7180
2019-04-28T12:15:29.751Z,6660
2019-04-28T12:16:29.798Z,6672
2019-04-28T12:17:29.799Z,6456
2019-04-28T12:19:29.840Z,5452
2019-04-28T12:20:29.881Z,5076
2019-04-28T12:21:29.884Z,4652
2019-04-28T12:22:29.909Z,4460
2019-04-28T12:23:29.932Z,4300
2019-04-28T12:24:29.966Z,3828
2019-04-28T12:26:30.027Z,3136
2019-04-28T12:27:30.037Z,3032
2019-04-28T12:28:30.044Z,2952
2019-04-28T12:29:44.728Z,3056
2019-04-28T12:30:30.138Z,3164
2019-04-28T12:31:30.119Z,3288
2019-04-28T12:32:30.147Z,3692
2019-04-28T12:33:30.155Z,4200
2019-04-28T12:34:30.181Z,4660
2019-04-28T12:35:30.198Z,5084
2019-04-28T12:36:44.884Z,5424
2019-04-28T12:37:30.237Z,5596
2019-04-28T12:38:30.266Z,5832
2019-04-28T12:39:30.289Z,5924
2019-04-28T12:40:30.307Z,6096
2019-04-28T12:41:30.327Z,6376
2019-04-28T12:43:30.384Z,7152
2019-04-28T12:44:30.394Z,7372
2019-04-28T12:45:45.089Z,7352
2019-04-28T12:47:30.462Z,7764
2019-04-28T12:48:32.656Z,8308
2019-04-28T12:49:30.504Z,8868
2019-04-28T12:50:45.195Z,9108
2019-04-28T12:51:30.550Z,8964
2019-04-28T12:52:30.572Z,9012
2019-04-28T12:53:30.600Z,9172
2019-04-28T12:54:45.278Z,9396
2019-04-28T12:55:30.646Z,9252
2019-04-28T12:56:30.657Z,8892
2019-04-28T12:59:30.727Z,7644
2019-04-28T13:00:45.412Z,7248
2019-04-28T13:01:30.825Z,6720
2019-04-28T13:02:30.798Z,6084
2019-04-28T13:03:30.816Z,5612
2019-04-28T13:04:30.840Z,5256
2019-04-28T13:05:30.858Z,5004
2019-04-28T13:06:30.990Z,4936
2019-04-28T13:07:30.903Z,4936
2019-04-28T13:08:45.595Z,4924
2019-04-28T13:09:45.611Z,5196
2019-04-28T13:10:31.026Z,5408
2019-04-28T13:11:30.996Z,5616
2019-04-28T13:12:31.015Z,5908
2019-04-28T13:13:31.044Z,6168
2019-04-28T13:15:31.089Z,6356
2019-04-28T13:16:31.114Z,6328
2019-04-28T13:17:31.168Z,6388
2019-04-28T13:18:31.147Z,6508
2019-04-28T13:19:31.173Z,6604
2019-04-28T13:20:31.191Z,6568
2019-04-28T13:21:31.210Z,6612
2019-04-28T13:22:45.906Z,5960
2019-04-28T13:23:31.258Z,5360
2019-04-28T13:24:31.359Z,4740
2019-04-28T13:25:31.351Z,4360
2019-04-28T13:26:46.009Z,3980
2019-04-28T13:27:31.382Z,3780
2019-04-28T13:28:31.376Z,3596
2019-04-28T13:29:31.401Z,3424
2019-04-28T13:30:31.485Z,3276
2019-04-28T13:31:31.226Z,3228
2019-04-28T13:32:46.122Z,3192
2019-04-28T13:33:31.497Z,3220
2019-04-28T13:34:31.577Z,3220
2019-04-28T13:35:31.579Z,3260
2019-04-28T13:36:31.559Z,3256
2019-04-28T13:37:31.611Z,3380
2019-04-28T13:38:31.597Z,3568
2019-04-28T13:39:31.617Z,3704
2019-04-28T13:40:31.823Z,3796
2019-04-28T13:41:31.747Z,3948
2019-04-28T13:42:31.689Z,4120
2019-04-28T13:43:31.714Z,4324
2019-04-28T13:44:46.382Z,4628
2019-04-28T13:45:31.743Z,4708
2019-04-28T13:46:31.763Z,5188
2019-04-28T13:47:31.786Z,5596
2019-04-28T13:49:01.138Z,6500
2019-04-28T13:49:31.844Z,6784
2019-04-28T13:50:32.042Z,7248
2019-04-28T13:51:31.867Z,7632
2019-04-28T13:52:31.891Z,7856
2019-04-28T13:53:31.997Z,8120
2019-04-28T13:54:31.954Z,8408
2019-04-28T13:55:32.072Z,8516
2019-04-28T13:56:32.044Z,8508
2019-04-28T13:57:32.015Z,8396
2019-04-28T13:58:32.116Z,8260
2019-04-28T14:00:32.100Z,7256
2019-04-28T14:01:32.126Z,6808
2019-04-28T14:02:31.920Z,6820
2019-04-28T14:03:32.129Z,7068
2019-04-28T14:05:01.519Z,9476
2019-04-28T14:05:32.186Z,9584
2019-04-28T14:06:50.550Z,10456
2019-04-28T14:07:32.223Z,10748
2019-04-28T14:08:32.347Z,11832
2019-04-28T14:09:32.271Z,12452
2019-04-28T14:10:32.345Z,12520
2019-04-28T14:11:32.409Z,11472
2019-04-28T14:12:32.414Z,10700
2019-04-28T14:13:32.401Z,9384
2019-04-28T14:14:32.399Z,9232
2019-04-28T14:15:32.522Z,9336
2019-04-28T14:16:47.169Z,9272
2019-04-28T14:17:32.561Z,9352
2019-04-28T14:18:47.216Z,9352
2019-04-28T14:19:47.228Z,9044
2019-04-28T14:20:46.996Z,8428
2019-04-28T14:21:32.591Z,7920
2019-04-28T14:22:32.600Z,7336
2019-04-28T14:23:32.636Z,6900
2019-04-28T14:24:32.406Z,6736
2019-04-28T14:25:47.330Z,6488
2019-04-28T14:26:32.698Z,6164
2019-04-28T14:27:32.667Z,5644
2019-04-28T14:28:32.727Z,5524
2019-04-28T14:29:32.741Z,5792
2019-04-28T14:30:47.420Z,6196
2019-04-28T14:31:32.802Z,6044
2019-04-28T14:32:32.853Z,5640
2019-04-28T14:33:32.799Z,5732
2019-04-28T14:34:32.867Z,5852
2019-04-28T14:35:47.521Z,5996
2019-04-28T14:36:46.170Z,5932
2019-04-28T14:37:33.003Z,5900
2019-04-28T14:38:33.049Z,6384